LFSBLSZA

Guest
Details From LFSB - Bale-Mulhouse
To LSZA - Lugano
Flight Number -
Tags generated
Created
Modified
Stats Distance 111 nm / 206 km
Max Altitude 7,300 ft / 2,225 m
Waypoints 3
Social Downloads 3
Likes 0
Share VATSIM

Download

Looking for another format? Having issues loading an existing format? Contact us
Advertisement - Login to hide

Notes

Basic altitude profile: - Ascent Rate: 1000ft/min - Ascent Speed: 200kts - Cruise Altitude: 15000ft - Cruise Speed: 200kts - Descent Rate: 1500ft/min - Descent Speed: 200kts

Route

LFSB BINGI LSZA

ID Type Via Altitude Latitude Longitude Leg Dist Tot Dist Heading (true) Name
O LFSB APT - 0 ft / 0 m 47.59581˚ 7.52481˚ - 0 nm - Bale-Mulhouse
BINGI FIX - 7,300 ft / 2,225 m 47.24806˚ 7.83500˚ 24 nm 24 nm 149° / 149° -
O LSZA APT - 0 ft / 0 m 46.00427˚ 8.91058˚ 86 nm 111 nm 149° / 150° Lugano

Altitude Profile

Advertisement - Login to hide

LFSB

Details ICAO LFSB (MLH)
Name Bale-Mulhouse
Region France
Timezone Europe/Paris (UTC+1.0)
Stats Elevation 885 ft / 270 m (AMSL)
Location 47.595810° 7.524806°
Runways 2
Magnetic Variation 2.086° E

METAR

LFSB 180330Z 16003KT 100V210 9999 -SNRA FEW022 BKN028 BKN040 00/M02 Q1024 BECMG 2000 -SN BKN010

Decode

TAF

TAF LFSB 172300Z 1800/1824 16005KT 9999 SCT020 BKN040 BECMG 1801/1804 2000 -SN BKN010 BKN020 PROB40 TEMPO 1805/1809 0500 SN BKN003 BECMG 1809/1812 26006KT 4000 -SNRA BECMG 1812/1814 8000 NSW SCT010 BKN020 BECMG 1818/1821 4000 BR BKN010

Decode

Departure Runways

ID Width Length Bearing (true) Bearing (mag) Surface Threshold Offset Overrun Length
08 193 ft / 59 m 5,956 ft / 1,816 m 76.91° 74.82° Concrete 0 ft / 0 m 0 ft / 0 m
15 197 ft / 60 m 12,802 ft / 3,902 m 154.86° 152.77° Concrete 0 ft / 0 m 0 ft / 0 m
26 193 ft / 59 m 5,956 ft / 1,816 m 256.93° 254.84° Concrete 722 ft / 220 m 0 ft / 0 m
33 197 ft / 60 m 12,802 ft / 3,902 m 334.88° 332.79° Concrete 3,675 ft / 1,120 m 0 ft / 0 m

LSZA

Details ICAO LSZA (LUG)
Name Lugano
Region Switzerland
Timezone Europe/Zurich (UTC+1.0)
Stats Elevation 915 ft / 279 m (AMSL)
Location 46.004275° 8.910579°
Runways 1
Magnetic Variation 2.425° E

METAR

LSZA 180320Z AUTO VRB02KT CAVOK M01/M07 Q1023

Decode

TAF

Not found

Destination Runways

ID Width Length Bearing (true) Bearing (mag) Surface Threshold Offset Overrun Length
01 98 ft / 30 m 4,430 ft / 1,350 m 18.79° 16.37° Asphalt 361 ft / 110 m 0 ft / 0 m
19 98 ft / 30 m 4,430 ft / 1,350 m 198.79° 196.37° Asphalt 673 ft / 205 m 0 ft / 0 m

Approach Navaids

Runway Type Ident Frequency Range Bearing (true) Bearing (mag) Slope Elevation
01 Localiser ILU 111.50 MHz 18 nm / 33 km 18.79° 16.37° - 928 ft / 283 m (AMSL)
01 Glidescope ILU 111.50 MHz 10 nm / 19 km 19.99° 17.57° 6.00° 928 ft / 283 m (AMSL)
01 DME ILU 111.50 MHz 18 nm / 33 km - - - 928 ft / 283 m (AMSL)

Popular Alternatives